Aeroporto :
LOGIN :

Iscrizione | Disclaimer

   EN    FR    IT 

 










Sommario :    VFR   VFR Marginale   IFR   IFR Intensivo   IFR Molto Intensivo
Visibilità : 
Base nubi : 
>= 8 km
>= 3000ft
5 / 8 km
1000 / 3000 ft
1500m / 5 km
500 / 1000 ft
800 / 1500m
200 / 500 ft
< 800m
< 200 ft
Simboli :   Temporali  Nebbia  Neve Forte  Precipitazioni Forti  Vento > 20 kt
SIGMETs :   Varie  Temporali  Ghiacco  Turbolenza  Onda orograficha  Ceneri Vulcaniche






- Altitudine del aeroporto : 44 ft
- Codice IATA : SOU


EGHI - Southampton

ULTIMO METAR :
  • 191650Z 30005KT 250V330 CAVOK 22/10 Q1016

METARs OBSOLETI :
  • 191620Z 29009KT 250V330 CAVOK 23/10 Q1016
  • 191550Z 30007KT 250V330 CAVOK 22/10 Q1016
  • 191520Z 28009KT 250V320 CAVOK 23/10 Q1015
  • 191450Z 28009KT 240V330 CAVOK 23/10 Q1015
  • 191420Z 29009KT 230V340 CAVOK 23/09 Q1015
  • 191350Z 30012KT 260V340 9999 FEW049 23/09 Q1015

TAF TAF EGHI
Valido dal 19 a 15 ore il 19 a 22 ore UTC


191358Z 1915/1922 30007KT 9999 FEW045
ATIS : +44 23 8062 7103



MetMap, La meteo Aeronautica in un colpo d'occhio ! - Copyright ORBIFLY Dicembre 2007 - Disclaimer

ORBIFLY MET'MAP TEAM :

Programmazione e sviluppo : Alexandra Zaïnal
Concezione : Baudouin d'Aumeries
Supporto tecnico e logistico : Manuel Goepfert
Aiuto : Marc-Olivier Méhu
Aiuto per la traduzione : Arnaldo La Scala




FONTI E CREDITI :

   NOAA